createdAt,value
2018-08-20T00:00:42.894Z,59.41
2018-08-20T00:03:11.298Z,59.42
2018-08-20T00:05:42.454Z,58.91
2018-08-20T00:08:10.850Z,59.13
2018-08-20T00:10:39.218Z,58.91
2018-08-20T00:13:07.620Z,59.73
2018-08-20T00:15:35.998Z,59.30
2018-08-20T00:18:04.438Z,59.76
2018-08-20T00:20:32.889Z,59.36
2018-08-20T00:23:01.278Z,60.24
2018-08-20T00:25:29.655Z,59.98
2018-08-20T00:27:58.062Z,60.08
2018-08-20T00:30:26.425Z,60.38
2018-08-20T00:32:55.114Z,60.48
2018-08-20T00:35:23.481Z,60.25
2018-08-20T00:37:52.838Z,60.50
2018-08-20T00:40:22.010Z,60.12
2018-08-20T00:42:50.414Z,60.39
2018-08-20T00:45:18.791Z,61.16
2018-08-20T00:47:47.183Z,60.64
2018-08-20T00:50:15.567Z,61.51
2018-08-20T00:52:43.970Z,62.01
2018-08-20T00:55:13.002Z,61.84
2018-08-20T00:57:41.923Z,61.65
2018-08-20T01:00:11.505Z,62.65
2018-08-20T01:02:39.911Z,62.14
2018-08-20T01:05:08.467Z,63.12
2018-08-20T01:07:36.870Z,62.13
2018-08-20T01:10:07.211Z,62.11
2018-08-20T01:12:35.639Z,62.48
2018-08-20T01:15:04.175Z,63.81
2018-08-20T01:17:32.602Z,62.57
2018-08-20T01:20:00.982Z,63.08
2018-08-20T01:22:29.374Z,63.55
2018-08-20T01:24:57.792Z,63.55
2018-08-20T01:27:27.204Z,63.98
2018-08-20T01:29:55.626Z,63.41
2018-08-20T01:32:24.032Z,63.91
2018-08-20T01:34:52.438Z,64.14
2018-08-20T01:37:21.596Z,63.69
2018-08-20T01:39:50.608Z,64.41
2018-08-20T01:42:19.272Z,64.44
2018-08-20T01:44:48.395Z,64.25
2018-08-20T01:47:16.774Z,63.75
2018-08-20T01:49:45.170Z,63.90
2018-08-20T01:52:13.542Z,63.94
2018-08-20T01:54:41.950Z,64.49
2018-08-20T01:57:10.333Z,63.91
2018-08-20T01:59:39.074Z,65.03
2018-08-20T02:02:07.450Z,64.42
2018-08-20T02:04:35.855Z,64.53
2018-08-20T02:07:04.237Z,65.55
2018-08-20T02:09:32.633Z,64.58
2018-08-20T02:12:01.018Z,64.55
2018-08-20T02:14:29.421Z,64.78
2018-08-20T02:16:57.829Z,65.32
2018-08-20T02:19:26.226Z,65.23
2018-08-20T02:21:54.598Z,65.53
2018-08-20T02:24:22.997Z,65.07
2018-08-20T02:26:51.365Z,65.73
2018-08-20T02:29:19.810Z,65.29
2018-08-20T02:31:48.170Z,65.62
2018-08-20T02:34:16.565Z,65.35
2018-08-20T02:36:44.939Z,65.29
2018-08-20T02:39:14.678Z,66.26
2018-08-20T02:41:43.565Z,65.84
2018-08-20T02:44:13.074Z,65.63
2018-08-20T02:46:45.696Z,66.09
2018-08-20T02:49:14.741Z,65.40
2018-08-20T02:51:43.102Z,65.46
2018-08-20T02:54:12.226Z,65.82
2018-08-20T02:56:41.086Z,66.81
2018-08-20T02:59:09.490Z,66.37
2018-08-20T03:01:38.050Z,67.40
2018-08-20T03:04:07.002Z,67.01
2018-08-20T03:06:35.834Z,67.28
2018-08-20T03:09:06.110Z,67.23
2018-08-20T03:11:34.481Z,67.49
2018-08-20T03:14:03.073Z,67.64
2018-08-20T03:16:31.477Z,66.85
2018-08-20T03:18:59.895Z,66.68
2018-08-20T03:21:28.362Z,67.38
2018-08-20T03:23:56.761Z,67.56
2018-08-20T03:26:25.158Z,66.76
2018-08-20T03:28:53.538Z,66.88
2018-08-20T03:31:21.940Z,66.80
2018-08-20T03:33:50.319Z,67.78
2018-08-20T03:36:18.711Z,67.96
2018-08-20T03:38:47.086Z,68.20
2018-08-20T03:41:15.495Z,68.33
2018-08-20T03:43:43.866Z,68.04
2018-08-20T03:46:12.262Z,67.83
2018-08-20T03:48:40.645Z,68.83
2018-08-20T03:51:09.046Z,68.00
2018-08-20T03:53:37.422Z,68.91
2018-08-20T03:56:05.930Z,68.63
2018-08-20T03:58:34.322Z,68.91
2018-08-20T04:01:02.801Z,68.09
2018-08-20T04:03:31.197Z,68.38
2018-08-20T04:05:59.595Z,68.32
2018-08-20T04:08:27.966Z,68.47
2018-08-20T04:10:56.366Z,67.75
2018-08-20T04:13:24.751Z,68.30
2018-08-20T04:15:53.442Z,67.40
2018-08-20T04:18:21.837Z,67.90
2018-08-20T04:20:50.238Z,67.22
2018-08-20T04:23:18.621Z,67.39
2018-08-20T04:25:47.019Z,67.03
2018-08-20T04:28:15.399Z,67.10
2018-08-20T04:30:43.931Z,67.11
2018-08-20T04:33:12.250Z,67.64
2018-08-20T04:35:40.654Z,67.47
2018-08-20T04:38:09.070Z,67.52
2018-08-20T04:40:37.462Z,66.75
2018-08-20T04:43:05.874Z,67.55
2018-08-20T04:45:34.270Z,66.62
2018-08-20T04:48:02.648Z,67.73
2018-08-20T04:50:31.280Z,67.54
2018-08-20T04:52:59.456Z,67.23
2018-08-20T04:55:27.969Z,67.51
2018-08-20T04:57:56.347Z,67.47
2018-08-20T05:00:24.754Z,67.46
2018-08-20T05:02:53.130Z,67.41
2018-08-20T05:05:21.535Z,66.93
2018-08-20T05:07:49.910Z,67.29
2018-08-20T05:10:18.322Z,67.32
2018-08-20T05:12:46.707Z,67.09
2018-08-20T05:15:15.086Z,66.79
2018-08-20T05:17:43.602Z,66.10
2018-08-20T05:20:11.986Z,66.39
2018-08-20T05:22:40.506Z,66.62
2018-08-20T05:25:08.890Z,66.66
2018-08-20T05:27:37.285Z,65.93
2018-08-20T05:30:06.986Z,66.47
2018-08-20T05:32:35.382Z,65.57
2018-08-20T05:35:03.782Z,65.45
2018-08-20T05:37:32.172Z,66.32
2018-08-20T05:40:00.549Z,65.06
2018-08-20T05:42:28.943Z,65.76
2018-08-20T05:44:57.371Z,65.35
2018-08-20T05:47:25.744Z,64.69
2018-08-20T05:49:54.171Z,64.33
2018-08-20T05:52:22.641Z,64.38
2018-08-20T05:54:50.981Z,64.70
2018-08-20T05:57:19.382Z,64.37
2018-08-20T05:59:47.762Z,63.36
2018-08-20T06:02:16.170Z,63.96
2018-08-20T06:04:44.533Z,63.00
2018-08-20T06:07:12.938Z,62.69
2018-08-20T06:09:41.314Z,62.46
2018-08-20T06:12:09.711Z,62.48
2018-08-20T06:14:38.202Z,62.27
2018-08-20T06:17:06.630Z,62.45
2018-08-20T06:19:35.014Z,61.79
2018-08-20T06:22:03.422Z,61.95
2018-08-20T06:24:31.806Z,61.15
2018-08-20T06:27:00.207Z,61.71
2018-08-20T06:29:28.618Z,60.65
2018-08-20T06:31:57.171Z,60.71
2018-08-20T06:34:25.546Z,60.37
2018-08-20T06:36:53.990Z,60.07
2018-08-20T06:39:22.375Z,60.04
2018-08-20T06:41:50.785Z,59.74
2018-08-20T06:44:19.174Z,60.38
2018-08-20T06:46:47.570Z,60.03
2018-08-20T06:49:15.965Z,60.39
2018-08-20T06:51:44.374Z,60.31
2018-08-20T06:54:12.758Z,60.31
2018-08-20T06:56:41.174Z,59.93
2018-08-20T06:59:09.553Z,59.65
2018-08-20T07:01:37.954Z,60.39
2018-08-20T07:04:06.334Z,59.54
2018-08-20T07:06:34.748Z,60.36
2018-08-20T07:09:03.583Z,60.19
2018-08-20T07:11:31.982Z,60.04
2018-08-20T07:14:00.393Z,58.69
2018-08-20T07:16:28.762Z,58.56
2018-08-20T07:18:57.173Z,59.44
2018-08-20T07:21:25.546Z,59.29
2018-08-20T07:23:54.024Z,59.15
2018-08-20T07:26:22.358Z,58.88
2018-08-20T07:28:50.779Z,59.56
2018-08-20T07:31:19.253Z,59.60
2018-08-20T07:33:47.642Z,59.18
2018-08-20T07:36:16.039Z,59.06
2018-08-20T07:38:44.430Z,59.41
2018-08-20T07:41:12.797Z,59.34
2018-08-20T07:43:41.182Z,58.90
2018-08-20T07:46:09.554Z,59.52
2018-08-20T07:48:37.942Z,59.27
2018-08-20T07:51:06.583Z,58.20
2018-08-20T07:53:34.986Z,58.32
2018-08-20T07:56:03.390Z,58.18
2018-08-20T07:58:31.794Z,57.90
2018-08-20T08:01:00.167Z,58.50
2018-08-20T08:03:31.415Z,58.70
2018-08-20T08:06:01.895Z,57.92
2018-08-20T08:08:30.368Z,57.72
2018-08-20T08:10:58.746Z,58.45
2018-08-20T08:13:27.178Z,57.99
2018-08-20T08:15:55.606Z,58.08
2018-08-20T08:18:24.038Z,58.77
2018-08-20T08:20:52.426Z,58.75
2018-08-20T08:23:20.847Z,58.27
2018-08-20T08:25:49.226Z,59.39
2018-08-20T08:28:17.662Z,58.89
2018-08-20T08:30:46.088Z,59.22
2018-08-20T08:33:14.489Z,59.03
2018-08-20T08:35:42.866Z,59.58
2018-08-20T08:38:11.429Z,59.21
2018-08-20T08:40:39.718Z,59.15
2018-08-20T08:43:08.118Z,58.87
2018-08-20T08:45:36.486Z,57.70
2018-08-20T08:48:04.940Z,57.94
2018-08-20T08:50:33.325Z,58.02
2018-08-20T08:53:01.705Z,57.11
2018-08-20T08:55:30.074Z,57.81
2018-08-20T08:57:58.466Z,56.88
2018-08-20T09:00:26.851Z,57.84
2018-08-20T09:02:55.243Z,58.38
2018-08-20T09:05:23.619Z,59.13
2018-08-20T09:07:52.083Z,58.86
2018-08-20T09:10:20.446Z,59.44
2018-08-20T09:12:48.849Z,59.08
2018-08-20T09:15:17.954Z,58.80
2018-08-20T09:17:46.578Z,59.04
2018-08-20T09:20:16.242Z,59.25
2018-08-20T09:22:44.824Z,60.10
2018-08-20T09:25:14.056Z,60.32
2018-08-20T09:27:43.431Z,60.15
2018-08-20T09:30:18.799Z,61.10
2018-08-20T09:32:47.658Z,61.02
2018-08-20T09:35:16.167Z,60.71
2018-08-20T09:37:44.539Z,60.37
2018-08-20T09:40:13.418Z,59.61
2018-08-20T09:42:42.309Z,58.68
2018-08-20T09:45:10.982Z,59.49
2018-08-20T09:47:40.388Z,58.93
2018-08-20T09:50:14.838Z,60.35
2018-08-20T09:52:43.406Z,60.68
2018-08-20T09:55:11.794Z,62.52
2018-08-20T09:57:40.576Z,64.33
2018-08-20T10:00:18.202Z,65.54
2018-08-20T10:02:46.632Z,67.39
2018-08-20T10:05:15.034Z,68.35
2018-08-20T10:07:43.538Z,68.81
2018-08-20T10:10:12.080Z,69.19
2018-08-20T10:12:40.467Z,69.01
2018-08-20T10:15:09.233Z,69.37
2018-08-20T10:17:37.633Z,69.46
2018-08-20T10:20:08.258Z,69.66
2018-08-20T10:22:36.632Z,68.79
2018-08-20T10:25:05.195Z,67.92
2018-08-20T10:27:33.574Z,68.13
2018-08-20T10:30:02.287Z,67.58
2018-08-20T10:32:31.290Z,66.03
2018-08-20T10:34:59.898Z,65.99
2018-08-20T10:37:28.278Z,65.69
2018-08-20T10:39:56.696Z,66.05
2018-08-20T10:42:25.103Z,64.71
2018-08-20T10:44:58.543Z,64.98
2018-08-20T10:47:26.982Z,64.86
2018-08-20T10:49:55.392Z,63.94
2018-08-20T10:52:23.766Z,64.74
2018-08-20T10:54:52.162Z,64.68
2018-08-20T10:57:20.539Z,63.57
2018-08-20T10:59:48.922Z,63.25
2018-08-20T11:02:17.295Z,62.94
2018-08-20T11:04:45.681Z,62.16
2018-08-20T11:07:14.054Z,61.48
2018-08-20T11:09:42.450Z,60.57
2018-08-20T11:12:10.821Z,60.77
2018-08-20T11:14:39.214Z,59.61
2018-08-20T11:17:07.605Z,59.09
2018-08-20T11:19:36.001Z,59.43
2018-08-20T11:22:04.386Z,59.22
2018-08-20T11:24:32.773Z,58.18
2018-08-20T11:27:01.219Z,58.02
2018-08-20T11:29:29.555Z,58.38
2018-08-20T11:31:57.930Z,58.74
2018-08-20T11:34:26.333Z,60.44
2018-08-20T11:36:54.706Z,61.21
2018-08-20T11:39:23.094Z,60.86
2018-08-20T11:41:51.466Z,61.10
2018-08-20T11:44:19.873Z,61.31
2018-08-20T11:46:48.250Z,62.21
2018-08-20T11:49:16.689Z,63.40
2018-08-20T11:51:45.050Z,63.27
2018-08-20T11:54:13.419Z,63.98
2018-08-20T11:56:41.809Z,64.89
2018-08-20T11:59:10.259Z,64.76
2018-08-20T12:01:38.609Z,65.16
2018-08-20T12:04:07.030Z,65.15
2018-08-20T12:06:35.450Z,65.02
2018-08-20T12:09:05.382Z,64.32
2018-08-20T12:11:33.778Z,63.03
2018-08-20T12:14:02.155Z,63.33
2018-08-20T12:16:30.551Z,62.15
2018-08-20T12:18:58.956Z,61.88
2018-08-20T12:21:27.388Z,59.53
2018-08-20T12:23:55.764Z,59.84
2018-08-20T12:26:24.149Z,59.72
2018-08-20T12:28:52.518Z,59.03
2018-08-20T12:31:20.909Z,58.63
2018-08-20T12:33:49.334Z,57.30
2018-08-20T12:36:17.718Z,56.19
2018-08-20T12:38:46.092Z,55.70
2018-08-20T12:41:14.483Z,55.01
2018-08-20T12:43:42.857Z,54.82
2018-08-20T12:46:11.250Z,55.81
2018-08-20T12:48:39.610Z,54.40
2018-08-20T12:51:08.030Z,54.45
2018-08-20T12:53:36.398Z,53.74
2018-08-20T12:56:04.790Z,52.93
2018-08-20T12:58:33.155Z,53.54
2018-08-20T13:01:01.653Z,52.76
2018-08-20T13:03:29.951Z,52.97
2018-08-20T13:05:58.387Z,52.46
2018-08-20T13:08:26.799Z,52.24
2018-08-20T13:10:55.220Z,53.08
2018-08-20T13:13:23.590Z,53.37
2018-08-20T13:15:52.019Z,53.31
2018-08-20T13:18:20.414Z,53.57
2018-08-20T13:20:48.817Z,53.38
2018-08-20T13:23:17.191Z,51.60
2018-08-20T13:25:45.727Z,51.79
2018-08-20T13:28:14.098Z,51.77
2018-08-20T13:30:42.647Z,52.57
2018-08-20T13:33:10.966Z,51.52
2018-08-20T13:35:39.360Z,51.35
2018-08-20T13:38:07.734Z,52.22
2018-08-20T13:40:36.134Z,51.42
2018-08-20T13:43:04.535Z,51.13
2018-08-20T13:45:32.930Z,50.86
2018-08-20T13:48:01.362Z,50.08
2018-08-20T13:50:29.790Z,49.76
2018-08-20T13:52:58.186Z,47.96
2018-08-20T13:55:26.559Z,49.03
2018-08-20T13:57:54.958Z,48.15
2018-08-20T14:00:23.343Z,49.02
2018-08-20T14:02:51.733Z,48.69
2018-08-20T14:05:20.114Z,49.04
2018-08-20T14:07:48.605Z,49.03
2018-08-20T14:10:16.977Z,48.93
2018-08-20T14:12:45.376Z,48.56
2018-08-20T14:15:14.426Z,48.49
2018-08-20T14:17:43.550Z,48.66
2018-08-20T14:20:13.954Z,49.53
2018-08-20T14:22:43.281Z,48.59
2018-08-20T14:25:11.816Z,48.38
2018-08-20T14:27:40.211Z,49.17
2018-08-20T14:30:13.254Z,49.62
2018-08-20T14:32:42.022Z,49.50
2018-08-20T14:35:10.994Z,48.72
2018-08-20T14:37:39.797Z,49.35
2018-08-20T14:40:12.607Z,49.29
2018-08-20T14:42:41.261Z,49.71
2018-08-20T14:45:11.162Z,48.95
2018-08-20T14:47:40.403Z,50.32
2018-08-20T14:50:10.990Z,50.08
2018-08-20T14:52:39.870Z,51.33
2018-08-20T14:55:08.773Z,52.07
2018-08-20T14:57:37.383Z,51.22
2018-08-20T15:00:06.919Z,51.44
2018-08-20T15:02:35.338Z,51.94
2018-08-20T15:05:03.821Z,51.31
2018-08-20T15:07:32.297Z,51.72
2018-08-20T15:10:00.686Z,51.34
2018-08-20T15:12:29.079Z,52.13
2018-08-20T15:14:57.560Z,52.67
2018-08-20T15:17:25.986Z,52.96
2018-08-20T15:19:54.358Z,53.14
2018-08-20T15:22:22.759Z,52.46
2018-08-20T15:24:51.143Z,52.75
2018-08-20T15:27:19.547Z,53.08
2018-08-20T15:29:47.930Z,52.31
2018-08-20T15:32:16.376Z,52.14
2018-08-20T15:34:44.738Z,52.57
2018-08-20T15:37:13.149Z,53.10
2018-08-20T15:39:41.619Z,53.04
2018-08-20T15:42:09.946Z,52.62
2018-08-20T15:44:38.313Z,52.91
2018-08-20T15:47:06.702Z,52.89
2018-08-20T15:49:35.076Z,53.69
2018-08-20T15:52:03.450Z,53.65
2018-08-20T15:54:31.842Z,53.06
2018-08-20T15:57:00.366Z,53.65
2018-08-20T15:59:28.770Z,53.01
2018-08-20T16:01:57.145Z,52.88
2018-08-20T16:04:25.535Z,53.41
2018-08-20T16:06:53.926Z,53.49
2018-08-20T16:09:22.331Z,53.76
2018-08-20T16:11:50.722Z,54.41
2018-08-20T16:14:19.113Z,54.44
2018-08-20T16:16:47.483Z,54.50
2018-08-20T16:19:15.905Z,53.45
2018-08-20T16:21:44.273Z,54.17
2018-08-20T16:24:12.667Z,54.75
2018-08-20T16:26:41.096Z,54.04
2018-08-20T16:29:09.499Z,54.54
2018-08-20T16:31:37.926Z,54.08
2018-08-20T16:34:06.354Z,54.60
2018-08-20T16:36:34.878Z,54.38
2018-08-20T16:39:04.814Z,54.43
2018-08-20T16:41:33.286Z,53.58
2018-08-20T16:44:01.682Z,54.19
2018-08-20T16:46:30.054Z,54.36
2018-08-20T16:48:58.487Z,54.21
2018-08-20T16:51:26.882Z,53.85
2018-08-20T16:53:55.290Z,53.89
2018-08-20T16:56:23.658Z,52.45
2018-08-20T16:58:52.154Z,52.08
2018-08-20T17:01:20.550Z,51.19
2018-08-20T17:03:48.982Z,51.40
2018-08-20T17:06:17.357Z,50.60
2018-08-20T17:08:45.978Z,51.52
2018-08-20T17:11:14.873Z,51.24
2018-08-20T17:13:43.453Z,51.32
2018-08-20T17:16:14.990Z,51.67
2018-08-20T17:18:43.415Z,52.27
2018-08-20T17:21:11.791Z,52.99
2018-08-20T17:23:40.177Z,53.63
2018-08-20T17:26:08.759Z,53.05
2018-08-20T17:28:37.275Z,53.35
2018-08-20T17:31:09.913Z,53.71
2018-08-20T17:33:38.302Z,54.13
2018-08-20T17:36:08.232Z,54.31
2018-08-20T17:38:36.651Z,54.83
2018-08-20T17:41:05.875Z,54.31
2018-08-20T17:43:34.266Z,54.67
2018-08-20T17:46:02.658Z,54.95
2018-08-20T17:48:32.446Z,54.92
2018-08-20T17:51:01.002Z,55.85
2018-08-20T17:53:42.834Z,56.03
2018-08-20T17:56:11.218Z,55.54
2018-08-20T17:58:39.585Z,55.80
2018-08-20T18:01:08.003Z,56.58
2018-08-20T18:03:37.232Z,55.94
2018-08-20T18:06:07.778Z,56.45
2018-08-20T18:08:36.439Z,56.52
2018-08-20T18:11:05.795Z,56.29
2018-08-20T18:13:44.469Z,56.06
2018-08-20T18:16:14.006Z,56.50
2018-08-20T18:18:45.220Z,56.25
2018-08-20T18:21:13.610Z,57.12
2018-08-20T18:23:41.998Z,57.39
2018-08-20T18:26:10.413Z,56.80
2018-08-20T18:28:45.753Z,57.34
2018-08-20T18:31:15.738Z,57.05
2018-08-20T18:33:44.606Z,56.99
2018-08-20T18:36:15.198Z,56.81
2018-08-20T18:39:04.961Z,58.13
2018-08-20T18:41:55.483Z,57.36
2018-08-20T18:44:24.102Z,58.31
2018-08-20T18:46:52.921Z,57.58
2018-08-20T18:49:22.081Z,57.67
2018-08-20T18:52:03.803Z,57.72
2018-08-20T18:54:36.084Z,58.26
2018-08-20T18:57:05.470Z,58.40
2018-08-20T18:59:35.363Z,57.79
2018-08-20T19:02:03.810Z,58.10
2018-08-20T19:04:38.650Z,57.82
2018-08-20T19:07:10.049Z,57.94
2018-08-20T19:09:39.231Z,58.19
2018-08-20T19:12:08.033Z,59.19
2018-08-20T19:14:36.407Z,59.37
2018-08-20T19:17:13.185Z,59.45
2018-08-20T19:19:45.720Z,58.78
2018-08-20T19:22:19.427Z,58.87
2018-08-20T19:24:47.794Z,59.26
2018-08-20T19:27:16.267Z,59.76
2018-08-20T19:29:44.671Z,59.19
2018-08-20T19:32:13.074Z,59.54
2018-08-20T19:34:41.446Z,59.44
2018-08-20T19:37:09.863Z,59.51
2018-08-20T19:39:38.238Z,59.61
2018-08-20T19:42:07.330Z,59.83
2018-08-20T19:44:35.702Z,59.99
2018-08-20T19:47:04.093Z,60.72
2018-08-20T19:49:32.472Z,60.15
2018-08-20T19:52:01.022Z,60.72
2018-08-20T19:54:29.393Z,61.19
2018-08-20T19:56:57.777Z,61.15
2018-08-20T19:59:31.442Z,60.39
2018-08-20T20:01:59.899Z,60.73
2018-08-20T20:04:28.269Z,61.60
2018-08-20T20:06:56.674Z,60.89
2018-08-20T20:09:25.042Z,60.94
2018-08-20T20:11:53.432Z,61.19
2018-08-20T20:14:21.808Z,62.16
2018-08-20T20:16:54.471Z,61.92
2018-08-20T20:19:23.026Z,62.60
2018-08-20T20:21:51.431Z,62.02
2018-08-20T20:24:19.817Z,62.57
2018-08-20T20:26:48.213Z,63.42
2018-08-20T20:29:16.640Z,62.67
2018-08-20T20:31:45.017Z,63.16
2018-08-20T20:34:13.389Z,62.49
2018-08-20T20:36:41.777Z,63.21
2018-08-20T20:39:11.586Z,62.81
2018-08-20T20:41:40.078Z,63.38
2018-08-20T20:44:09.310Z,63.95
2018-08-20T20:46:37.705Z,64.06
2018-08-20T20:49:06.083Z,64.05
2018-08-20T20:51:34.506Z,63.64
2018-08-20T20:54:02.872Z,63.44
2018-08-20T20:56:31.239Z,63.69
2018-08-20T20:58:59.642Z,63.76
2018-08-20T21:01:28.011Z,64.29
2018-08-20T21:03:56.498Z,64.01
2018-08-20T21:06:24.866Z,64.36
2018-08-20T21:08:53.293Z,64.60
2018-08-20T21:11:22.977Z,64.40
2018-08-20T21:13:51.361Z,65.33
2018-08-20T21:16:23.658Z,64.68
2018-08-20T21:18:53.375Z,64.99
2018-08-20T21:21:22.390Z,65.90
2018-08-20T21:23:50.941Z,64.89
2018-08-20T21:26:19.342Z,65.52
2018-08-20T21:28:49.847Z,65.36
2018-08-20T21:31:19.335Z,65.34
2018-08-20T21:33:48.039Z,65.20
2018-08-20T21:36:16.896Z,65.52
2018-08-20T21:38:45.418Z,66.19
2018-08-20T21:41:13.781Z,65.57
2018-08-20T21:43:47.190Z,65.89
2018-08-20T21:46:15.846Z,66.58
2018-08-20T21:48:44.761Z,66.08
2018-08-20T21:51:44.710Z,66.18
2018-08-20T21:54:13.102Z,66.77
2018-08-20T21:56:49.710Z,67.18
2018-08-20T21:59:18.122Z,66.95
2018-08-20T22:01:46.485Z,67.52
2018-08-20T22:04:20.824Z,67.04
2018-08-20T22:06:49.783Z,66.92
2018-08-20T22:09:18.171Z,67.68
2018-08-20T22:11:46.537Z,67.66
2018-08-20T22:14:14.926Z,67.51
2018-08-20T22:16:43.297Z,67.04
2018-08-20T22:19:11.715Z,68.08
2018-08-20T22:21:40.086Z,67.21
2018-08-20T22:24:08.474Z,67.98
2018-08-20T22:26:40.334Z,67.76
2018-08-20T22:29:08.733Z,67.03
2018-08-20T22:31:37.127Z,67.92
2018-08-20T22:34:05.529Z,67.04
2018-08-20T22:36:34.013Z,67.49
2018-08-20T22:39:04.611Z,67.73
2018-08-20T22:41:32.988Z,67.48
2018-08-20T22:44:01.382Z,66.91
2018-08-20T22:46:29.762Z,67.47
2018-08-20T22:48:59.422Z,67.56
2018-08-20T22:51:29.616Z,66.82
2018-08-20T22:54:00.478Z,66.86
2018-08-20T22:56:33.653Z,67.08
2018-08-20T22:59:03.538Z,66.89
2018-08-20T23:01:31.910Z,67.60
2018-08-20T23:04:00.315Z,67.68
2018-08-20T23:06:28.705Z,67.51
2018-08-20T23:08:57.094Z,68.03
2018-08-20T23:11:38.972Z,68.21
2018-08-20T23:14:08.922Z,68.20
2018-08-20T23:16:37.575Z,68.93
2018-08-20T23:19:06.090Z,68.48
2018-08-20T23:21:39.741Z,68.41
2018-08-20T23:24:08.186Z,68.47
2018-08-20T23:26:36.642Z,68.53
2018-08-20T23:29:05.074Z,68.71
2018-08-20T23:31:33.473Z,69.45
2018-08-20T23:34:01.879Z,69.57
2018-08-20T23:36:30.251Z,69.64
2018-08-20T23:38:58.658Z,69.44
2018-08-20T23:41:27.025Z,69.41
2018-08-20T23:43:59.310Z,69.54
2018-08-20T23:46:38.738Z,70.45
2018-08-20T23:49:07.125Z,70.49
2018-08-20T23:51:35.513Z,70.04
2018-08-20T23:54:03.922Z,70.11
2018-08-20T23:56:32.299Z,70.04
2018-08-20T23:59:00.913Z,70.88
